Time;durP1;ratioP1;P1;durP2;ratioP2;P2;SDS_P1;SDS_P2;PMS_P1;PMS_P2;Temp;Humidity;BMP_temperature;BMP_pressure;BME280_temperature;BME280_humidity;BME280_pressure;Samples;Min_cycle;Max_cycle;Signal;HPM_P1;HPM_P2
2022/07/12 00:01:06;;;;;;;2.97;2.78;;;;;;;23.94;46.10;99100.94;5022204;28;20034;-54
2022/07/12 00:03:33;;;;;;;2.88;2.67;;;;;;;24.00;46.08;99091.00;5031561;28;20025;-53
2022/07/12 00:05:59;;;;;;;2.95;2.65;;;;;;;24.05;46.04;99095.78;5030708;28;20065;-51
2022/07/12 00:08:24;;;;;;;3.17;2.83;;;;;;;23.98;46.27;99090.34;5031444;28;20025;-56
2022/07/12 00:10:50;;;;;;;2.80;2.60;;;;;;;23.92;46.69;99092.13;5031782;28;20041;-53
2022/07/12 00:13:16;;;;;;;7.35;3.22;;;;;;;23.89;46.59;99092.59;5029601;28;20389;-50
2022/07/12 00:15:42;;;;;;;4.68;3.00;;;;;;;23.78;46.75;99087.88;5031049;28;20163;-50
2022/07/12 00:18:08;;;;;;;3.95;2.95;;;;;;;23.85;46.89;99088.63;5031654;28;20044;-53
2022/07/12 00:20:34;;;;;;;4.72;2.88;;;;;;;23.74;47.38;99075.75;5030732;28;20034;-50
2022/07/12 00:22:59;;;;;;;4.72;2.85;;;;;;;23.82;47.05;99085.53;5031150;28;20522;-51
2022/07/12 00:25:25;;;;;;;3.65;2.90;;;;;;;23.82;47.35;99094.56;5031375;28;20075;-50
2022/07/12 00:27:52;;;;;;;3.35;3.05;;;;;;;23.80;47.14;99080.28;5031795;28;20030;-52
2022/07/12 00:30:17;;;;;;;4.30;3.05;;;;;;;23.80;47.28;99093.97;5031090;28;20493;-53
2022/07/12 00:32:43;;;;;;;3.47;3.17;;;;;;;23.76;47.22;99092.75;5030601;28;20021;-51
2022/07/12 00:35:09;;;;;;;6.38;3.38;;;;;;;23.61;47.38;99055.72;5030809;28;20081;-55
2022/07/12 00:37:35;;;;;;;3.50;3.20;;;;;;;23.77;47.16;99089.81;5026747;28;20049;-54
2022/07/12 00:40:00;;;;;;;6.82;3.25;;;;;;;23.77;47.21;99081.59;5030709;28;20587;-52
2022/07/12 00:42:26;;;;;;;3.90;3.60;;;;;;;23.71;47.49;99081.69;5030605;28;20477;-51
2022/07/12 00:44:52;;;;;;;4.88;3.72;;;;;;;23.73;47.48;99076.81;5030494;28;20378;-50
2022/07/12 00:47:45;;;;;;;3.65;3.35;;;;;;;23.88;46.74;99070.94;5031131;28;20048;-54
2022/07/12 00:50:18;;;;;;;4.30;3.30;;;;;;;23.69;47.46;99078.34;5029502;28;20041;-53
2022/07/12 00:52:46;;;;;;;4.47;3.33;;;;;;;23.68;47.86;99080.22;5029210;28;20029;-53
2022/07/12 00:55:12;;;;;;;5.47;3.65;;;;;;;23.70;48.02;99085.47;5029997;28;20038;-51
2022/07/12 00:57:39;;;;;;;5.00;3.50;;;;;;;23.70;47.84;99074.53;5030341;28;20048;-52
2022/07/12 01:00:08;;;;;;;5.13;3.22;;;;;;;23.68;47.90;99090.34;5028623;28;20342;-51
2022/07/12 01:02:35;;;;;;;3.80;3.50;;;;;;;23.60;48.13;99067.69;5030093;28;20041;-50
2022/07/12 01:05:02;;;;;;;5.65;3.20;;;;;;;23.56;48.16;99055.56;5030451;28;20037;-51
2022/07/12 01:07:31;;;;;;;4.03;3.10;;;;;;;23.57;48.23;99042.75;5030026;28;20107;-50
2022/07/12 01:09:57;;;;;;;3.17;2.88;;;;;;;23.49;48.08;99025.59;5030499;28;20159;-52
2022/07/12 01:12:24;;;;;;;4.07;3.50;;;;;;;23.35;48.14;99003.06;5029619;28;20489;-51
2022/07/12 01:14:51;;;;;;;4.13;3.08;;;;;;;23.45;48.17;99027.09;5030080;28;20319;-53
2022/07/12 01:17:21;;;;;;;3.72;3.25;;;;;;;23.54;47.90;99033.09;5030192;28;20022;-54
2022/07/12 01:19:48;;;;;;;9.13;3.20;;;;;;;23.43;48.11;99025.69;5030076;28;20026;-51
2022/07/12 01:22:15;;;;;;;3.60;3.30;;;;;;;23.30;48.14;98988.44;5030065;28;20026;-51
2022/07/12 01:24:41;;;;;;;4.68;3.53;;;;;;;23.46;48.44;99008.84;5030090;28;20109;-53
2022/07/12 01:27:07;;;;;;;5.18;3.47;;;;;;;23.19;48.71;98999.00;5029598;28;20083;-51
2022/07/12 01:29:33;;;;;;;7.13;3.88;;;;;;;23.33;48.99;99020.75;5029767;28;20446;-53
2022/07/12 01:32:24;;;;;;;5.90;3.30;;;;;;;23.27;48.75;99000.63;5030070;28;20056;-54
2022/07/12 01:34:52;;;;;;;4.53;3.70;;;;;;;23.24;49.29;99009.25;5028289;28;20084;-55
2022/07/12 01:37:20;;;;;;;5.93;3.75;;;;;;;23.27;49.51;99017.03;5029610;28;20452;-53
2022/07/12 01:39:47;;;;;;;5.47;3.45;;;;;;;23.22;49.98;99017.66;5029626;28;20454;-50
2022/07/12 01:42:13;;;;;;;9.50;3.95;;;;;;;23.30;49.86;99016.56;5029681;28;20120;-53
2022/07/12 01:44:38;;;;;;;6.30;4.15;;;;;;;23.20;50.16;99010.78;5029431;28;20124;-55
2022/07/12 01:47:04;;;;;;;7.72;4.57;;;;;;;23.26;50.25;98992.66;5028844;28;20103;-57
2022/07/12 01:49:30;;;;;;;4.95;4.10;;;;;;;23.22;50.37;98995.00;5029846;28;20033;-51
2022/07/12 01:51:55;;;;;;;6.45;3.92;;;;;;;23.10;50.76;98981.28;5029569;28;20104;-55
2022/07/12 01:54:23;;;;;;;7.90;4.60;;;;;;;23.24;50.45;98973.75;5029776;28;20458;-53
2022/07/12 01:56:48;;;;;;;9.15;4.88;;;;;;;23.28;50.59;98972.28;5030349;28;20029;-57
2022/07/12 01:59:14;;;;;;;4.55;4.07;;;;;;;23.16;51.11;98958.50;5029711;28;20029;-56
2022/07/12 02:01:39;;;;;;;6.55;4.65;;;;;;;23.17;51.26;98968.38;5029808;28;20033;-55
2022/07/12 02:04:05;;;;;;;5.10;4.60;;;;;;;23.16;51.36;98979.53;5030234;28;20065;-54
2022/07/12 02:06:31;;;;;;;4.97;4.57;;;;;;;23.03;52.07;98978.59;5029324;28;20056;-56
2022/07/12 02:08:56;;;;;;;5.05;4.45;;;;;;;22.97;52.33;98979.53;5029982;28;20033;-54
2022/07/12 02:11:22;;;;;;;8.25;4.57;;;;;;;23.03;52.29;98970.41;5031171;28;20065;-53
2022/07/12 02:13:48;;;;;;;6.43;4.75;;;;;;;22.95;52.59;98954.34;5033672;28;20069;-49
2022/07/12 02:16:33;;;;;;;5.95;4.80;;;;;;;22.81;52.63;98918.19;5032803;28;20072;-51
2022/07/12 02:18:59;;;;;;;7.28;4.88;;;;;;;23.04;52.26;98963.91;5033415;28;20116;-51
2022/07/12 02:21:25;;;;;;;6.82;5.05;;;;;;;23.01;52.31;98947.13;5033194;28;20465;-54
2022/07/12 02:23:50;;;;;;;8.13;5.20;;;;;;;23.03;52.21;98940.41;5033693;28;20176;-51
2022/07/12 02:26:16;;;;;;;6.15;4.03;;;;;;;23.07;51.87;98930.69;5033253;28;20036;-56
2022/07/12 02:28:42;;;;;;;7.05;5.38;;;;;;;23.11;52.08;98935.69;5033244;28;20037;-51
2022/07/12 02:31:08;;;;;;;7.88;5.53;;;;;;;23.08;52.23;98924.16;5033048;28;20076;-53
2022/07/12 02:33:35;;;;;;;6.25;4.82;;;;;;;23.01;52.33;98915.22;5033234;28;20053;-54
2022/07/12 02:36:00;;;;;;;6.07;5.10;;;;;;;23.12;52.02;98918.25;5033336;28;20089;-53
2022/07/12 02:38:26;;;;;;;7.30;4.72;;;;;;;23.11;51.49;98897.47;5031497;28;20551;-51
2022/07/12 02:40:54;;;;;;;8.18;5.18;;;;;;;23.20;51.63;98912.47;5033209;28;20037;-53
2022/07/12 02:43:24;;;;;;;6.22;4.38;;;;;;;23.21;51.69;98925.06;5033046;28;20034;-59
2022/07/12 02:45:51;;;;;;;7.07;4.57;;;;;;;23.27;51.43;98918.72;5019442;28;20033;-49
2022/07/12 02:48:17;;;;;;;5.90;4.82;;;;;;;23.33;51.13;98908.78;5032819;28;20112;-54
2022/07/12 02:50:43;;;;;;;6.82;4.97;;;;;;;23.42;51.09;98921.03;5032644;28;20167;-54
2022/07/12 02:53:10;;;;;;;5.68;4.97;;;;;;;23.40;51.08;98919.63;5031931;28;20325;-49
2022/07/12 02:55:36;;;;;;;6.47;4.88;;;;;;;23.46;50.68;98924.97;5032998;28;20044;-51
2022/07/12 02:58:02;;;;;;;7.35;5.03;;;;;;;23.51;50.45;98937.94;5032391;28;20033;-56
2022/07/12 03:00:29;;;;;;;5.80;4.60;;;;;;;23.63;49.89;98947.03;5032946;28;20113;-48
2022/07/12 03:02:54;;;;;;;9.00;4.63;;;;;;;23.60;49.57;98950.22;5032971;28;20051;-52
2022/07/12 03:05:20;;;;;;;5.20;4.28;;;;;;;23.58;49.54;98954.25;5032604;28;20036;-52
2022/07/12 03:07:45;;;;;;;6.93;4.50;;;;;;;23.45;50.37;98936.16;5030964;28;20041;-51
2022/07/12 03:10:11;;;;;;;4.85;4.35;;;;;;;23.34;50.80;98932.28;5032333;28;20035;-53
2022/07/12 03:12:37;;;;;;;7.15;4.47;;;;;;;23.46;50.46;98965.13;5032620;28;20030;-54
2022/07/12 03:15:04;;;;;;;7.78;4.47;;;;;;;23.35;50.98;98934.78;5032805;28;20112;-52
2022/07/12 03:17:29;;;;;;;11.05;4.88;;;;;;;23.40;50.68;98941.47;5030872;28;20029;-50
2022/07/12 03:19:55;;;;;;;6.07;4.72;;;;;;;23.20;51.05;98916.03;5032114;28;20037;-55
2022/07/12 03:22:20;;;;;;;8.23;5.00;;;;;;;23.34;50.98;98933.13;5030947;28;20032;-54
2022/07/12 03:24:46;;;;;;;5.65;4.80;;;;;;;23.42;50.71;98936.63;5032260;28;20489;-50
2022/07/12 03:27:11;;;;;;;5.97;4.88;;;;;;;23.45;50.54;98947.91;5031673;28;20041;-53
2022/07/12 03:29:39;;;;;;;7.30;4.78;;;;;;;23.56;50.41;98943.53;5031797;28;20029;-54
2022/07/12 03:32:06;;;;;;;5.38;4.60;;;;;;;23.77;49.89;98955.03;5032281;28;20033;-53
2022/07/12 03:34:31;;;;;;;6.25;5.00;;;;;;;23.72;49.75;98955.72;5031912;28;20142;-52
2022/07/12 03:36:57;;;;;;;7.03;5.00;;;;;;;23.93;48.68;98957.13;5031818;28;20037;-51
2022/07/12 03:39:23;;;;;;;7.68;4.75;;;;;;;24.03;48.62;98945.66;5030448;28;20038;-52
2022/07/12 03:41:48;;;;;;;4.97;4.53;;;;;;;24.13;48.25;98936.88;5031610;28;20478;-53
2022/07/12 03:44:14;;;;;;;6.30;4.72;;;;;;;24.35;47.79;98950.81;5031992;28;20021;-54
2022/07/12 03:46:39;;;;;;;7.90;5.07;;;;;;;24.45;47.28;98932.97;5031574;28;20063;-52
2022/07/12 03:49:05;;;;;;;8.30;5.00;;;;;;;24.66;46.72;98950.72;5031707;28;20042;-51
2022/07/12 03:51:30;;;;;;;5.82;4.50;;;;;;;24.90;45.79;98928.81;5031855;28;20036;-55
2022/07/12 03:53:56;;;;;;;6.65;4.78;;;;;;;25.12;45.56;98936.41;5031233;28;20458;-53
2022/07/12 03:59:05;;;;;;;5.60;5.00;;;;;;;25.40;44.39;98935.59;5032002;28;20025;-54
2022/07/12 04:01:31;;;;;;;11.57;4.55;;;;;;;25.77;44.24;98939.88;5031774;28;20518;-54
2022/07/12 04:03:57;;;;;;;7.78;4.65;;;;;;;25.94;43.69;98931.72;5031428;28;20029;-52
2022/07/12 04:06:22;;;;;;;6.00;4.80;;;;;;;26.13;43.17;98937.78;5031247;28;20078;-55
2022/07/12 04:08:48;;;;;;;5.88;4.15;;;;;;;26.15;43.53;98949.34;5031602;28;20175;-53
2022/07/12 04:11:13;;;;;;;9.15;5.35;;;;;;;26.25;43.29;98958.84;5031532;28;20034;-56
2022/07/12 04:13:39;;;;;;;8.98;5.40;;;;;;;26.40;42.72;98937.16;5031123;28;20029;-59
2022/07/12 04:16:05;;;;;;;10.48;5.15;;;;;;;26.40;42.94;98961.00;5031175;28;20389;-54
2022/07/12 04:18:31;;;;;;;6.93;5.03;;;;;;;26.16;42.92;98942.81;5031058;28;20065;-54
2022/07/12 04:20:56;;;;;;;8.93;5.32;;;;;;;26.05;43.51;98957.41;5030225;28;20462;-55
2022/07/12 04:23:22;;;;;;;7.97;5.43;;;;;;;25.91;43.41;98945.88;5031178;28;20037;-57
2022/07/12 04:25:47;;;;;;;10.15;5.30;;;;;;;25.87;43.90;98956.53;5026341;28;20041;-52
2022/07/12 04:28:13;;;;;;;11.43;5.18;;;;;;;26.05;43.30;98979.34;5011818;28;20036;-53
2022/07/12 04:30:38;;;;;;;8.25;5.13;;;;;;;26.21;42.91;98964.81;5011606;28;20509;-50
2022/07/12 04:33:03;;;;;;;7.18;4.93;;;;;;;26.48;42.54;98953.19;5010864;28;20331;-56
2022/07/12 04:35:29;;;;;;;11.35;5.32;;;;;;;26.65;41.75;98957.84;5019577;28;20040;-56
2022/07/12 04:37:54;;;;;;;11.13;5.35;;;;;;;26.83;41.60;98950.41;5031699;28;20444;-52
2022/07/12 04:40:20;;;;;;;8.07;5.00;;;;;;;27.12;41.17;98955.78;5029832;28;20037;-54
2022/07/12 04:42:45;;;;;;;7.15;4.95;;;;;;;27.13;40.70;98957.44;5028361;28;20087;-54
2022/07/12 04:45:11;;;;;;;6.32;5.20;;;;;;;27.00;41.13;98959.44;5029294;28;20374;-51
2022/07/12 04:47:37;;;;;;;8.52;5.40;;;;;;;26.59;41.34;98998.09;5030123;28;20025;-50
2022/07/12 04:50:07;;;;;;;6.95;5.60;;;;;;;26.36;42.17;98988.94;5028304;28;20030;-56
2022/07/12 04:52:33;;;;;;;6.60;5.25;;;;;;;25.86;43.31;98987.78;5029907;28;20385;-49
2022/07/12 04:54:59;;;;;;;6.68;5.72;;;;;;;25.42;44.35;98971.81;5029512;28;20574;-51
2022/07/12 04:57:24;;;;;;;8.73;6.00;;;;;;;25.36;44.66;98975.50;5030148;28;20121;-53
2022/07/12 04:59:50;;;;;;;6.50;5.35;;;;;;;25.37;44.99;98974.44;5029959;28;20036;-47
2022/07/12 05:02:15;;;;;;;10.73;5.57;;;;;;;25.48;44.67;98962.66;5029002;28;20026;-49
2022/07/12 05:04:41;;;;;;;6.50;5.53;;;;;;;25.41;44.88;98966.56;5029212;28;20053;-53
2022/07/12 05:07:06;;;;;;;5.85;5.35;;;;;;;25.62;44.42;98998.84;5029600;28;20465;-55
2022/07/12 05:09:32;;;;;;;8.82;5.68;;;;;;;25.47;45.04;98993.03;5028867;28;20037;-51
2022/07/12 05:11:57;;;;;;;10.05;5.93;;;;;;;25.35;44.96;98977.44;5028891;28;20022;-55
2022/07/12 05:14:23;;;;;;;10.38;5.68;;;;;;;25.55;44.75;98978.94;5028558;28;20022;-56
2022/07/12 05:16:48;;;;;;;9.63;5.93;;;;;;;25.62;44.54;98990.63;5029091;28;20025;-53
2022/07/12 05:19:15;;;;;;;7.95;5.72;;;;;;;25.62;44.68;98992.50;5026370;28;20034;-56
2022/07/12 05:21:42;;;;;;;9.73;5.68;;;;;;;25.28;45.41;98962.22;5028784;28;20112;-57
2022/07/12 05:24:07;;;;;;;9.48;5.32;;;;;;;24.96;45.75;98990.84;5028831;28;20021;-51
2022/07/12 05:26:33;;;;;;;11.15;5.63;;;;;;;24.88;46.31;98981.06;5029237;28;20083;-51
2022/07/12 05:28:59;;;;;;;9.98;5.10;;;;;;;24.84;46.59;98992.72;5028941;28;20110;-49
2022/07/12 05:31:25;;;;;;;10.52;5.60;;;;;;;24.69;47.34;98985.81;5029220;28;20311;-51
2022/07/12 05:33:50;;;;;;;9.48;5.80;;;;;;;24.51;47.34;98964.88;5028767;28;20069;-50
2022/07/12 05:36:16;;;;;;;8.60;5.75;;;;;;;24.54;47.85;98999.97;5028196;28;20045;-53
2022/07/12 05:38:41;;;;;;;8.65;5.57;;;;;;;24.45;48.51;99004.94;5028943;28;20030;-51
2022/07/12 05:41:07;;;;;;;14.00;5.50;;;;;;;24.32;48.59;98984.09;5011264;28;20029;-52
2022/07/12 05:43:32;;;;;;;9.73;5.88;;;;;;;24.30;48.75;99005.41;5029304;28;20033;-51
2022/07/12 05:45:58;;;;;;;8.85;6.07;;;;;;;24.27;48.53;98997.66;5027945;28;20033;-50
2022/07/12 05:48:23;;;;;;;9.57;6.05;;;;;;;24.19;48.27;98968.75;5032687;28;20056;-54
2022/07/12 05:50:49;;;;;;;8.93;5.68;;;;;;;24.39;48.12;98994.09;5031508;28;20034;-54
2022/07/12 05:53:24;;;;;;;12.50;6.10;;;;;;;24.60;47.48;98995.47;5031180;28;20117;-61
2022/07/12 05:55:54;;;;;;;11.82;5.45;;;;;;;24.65;47.80;98992.84;5034112;28;20037;-60
2022/07/12 05:58:20;;;;;;;9.55;5.20;;;;;;;24.77;47.07;98984.66;5033564;28;20032;-59
2022/07/12 06:00:46;;;;;;;11.85;5.57;;;;;;;24.71;47.22;98997.34;5033396;28;20033;-62
2022/07/12 06:03:16;;;;;;;9.30;5.82;;;;;;;24.78;46.73;98987.13;5032666;28;20432;-62
2022/07/12 06:05:42;;;;;;;8.63;5.85;;;;;;;24.72;47.04;99001.75;5034219;28;20033;-65
2022/07/12 06:08:07;;;;;;;7.22;5.97;;;;;;;24.90;46.65;98992.59;5033861;28;20029;-60
2022/07/12 06:10:33;;;;;;;9.57;5.53;;;;;;;25.20;46.02;98993.53;5028720;28;20036;-62
2022/07/12 06:13:00;;;;;;;11.27;5.78;;;;;;;25.43;45.74;99011.00;5028780;28;20037;-60
2022/07/12 06:15:25;;;;;;;9.23;5.78;;;;;;;25.37;45.31;98994.47;5033530;28;20041;-61
2022/07/12 06:17:51;;;;;;;8.73;5.45;;;;;;;25.27;46.11;98999.72;5048923;28;20029;-60
2022/07/12 06:20:16;;;;;;;10.48;5.82;;;;;;;25.47;45.47;98977.44;5033470;28;20029;-60
2022/07/12 06:22:42;;;;;;;10.80;5.82;;;;;;;25.74;44.80;98993.31;5033919;28;20040;-60
2022/07/12 06:25:08;;;;;;;9.95;5.90;;;;;;;25.61;44.73;98999.06;5049217;28;20034;-60
2022/07/12 06:27:33;;;;;;;12.65;5.78;;;;;;;25.50;45.52;98990.66;5032139;28;20489;-61
2022/07/12 06:29:59;;;;;;;12.13;5.55;;;;;;;25.43;45.63;98975.38;5032792;28;20033;-60
2022/07/12 06:32:24;;;;;;;11.52;5.70;;;;;;;25.58;45.36;98989.44;5031914;28;20041;-61
2022/07/12 06:34:50;;;;;;;8.93;5.90;;;;;;;25.53;45.33;98993.97;5033326;28;20052;-60
2022/07/12 06:37:16;;;;;;;11.35;6.22;;;;;;;25.32;45.59;98993.53;5033241;28;20172;-60
2022/07/12 06:39:41;;;;;;;9.32;6.10;;;;;;;25.02;46.41;98989.06;5031854;28;20116;-60
2022/07/12 06:42:07;;;;;;;11.93;6.18;;;;;;;24.92;46.35;99006.91;5033529;28;20037;-61
2022/07/12 06:44:33;;;;;;;11.40;6.15;;;;;;;24.70;47.35;99009.38;5033230;28;20037;-61
2022/07/12 06:47:00;;;;;;;9.38;6.30;;;;;;;24.55;48.05;99018.03;5031730;28;20048;-60
2022/07/12 06:49:26;;;;;;;10.13;5.70;;;;;;;24.51;47.84;99014.94;5032654;28;20382;-61
2022/07/12 06:51:51;;;;;;;11.63;6.10;;;;;;;24.40;48.32;99023.97;5032436;28;20053;-61
2022/07/12 06:54:17;;;;;;;12.57;6.53;;;;;;;24.45;48.08;99021.34;5026459;28;20504;-64
2022/07/12 06:56:42;;;;;;;9.07;5.90;;;;;;;24.26;48.53;99015.16;5027456;28;20478;-63
2022/07/12 06:59:11;;;;;;;11.07;5.57;;;;;;;24.21;48.79;99009.50;5030253;28;20038;-61
2022/07/12 07:01:37;;;;;;;6.75;5.47;;;;;;;24.13;48.90;99043.53;5032730;28;20112;-61
2022/07/12 07:04:04;;;;;;;15.00;6.05;;;;;;;24.10;49.20;99035.75;5032449;28;20033;-62
2022/07/12 07:06:29;;;;;;;9.07;5.53;;;;;;;24.19;49.11;99020.72;5031466;28;20183;-62
2022/07/12 07:08:55;;;;;;;6.88;5.93;;;;;;;24.19;49.17;99015.25;5031018;28;20108;-61
2022/07/12 07:11:20;;;;;;;12.43;6.07;;;;;;;24.06;48.99;98996.28;5032270;28;20068;-63
2022/07/12 07:13:46;;;;;;;11.65;6.20;;;;;;;24.17;49.25;99028.31;5031890;28;20032;-63
2022/07/12 07:16:11;;;;;;;12.93;6.20;;;;;;;24.22;49.41;99028.44;5032269;28;20036;-62
2022/07/12 07:18:37;;;;;;;7.00;6.30;;;;;;;24.16;49.66;99018.44;5032014;28;20440;-63
2022/07/12 07:21:02;;;;;;;16.10;6.28;;;;;;;24.13;49.93;99029.84;5031332;28;20041;-61
2022/07/12 07:23:28;;;;;;;10.32;6.40;;;;;;;24.22;50.12;99022.97;5031962;28;20031;-61
2022/07/12 07:25:53;;;;;;;10.63;5.95;;;;;;;24.07;50.61;99022.56;5031944;28;20045;-61
2022/07/12 07:28:19;;;;;;;9.10;6.18;;;;;;;23.97;51.30;99030.47;5030850;28;20034;-61
2022/07/12 07:30:54;;;;;;;15.77;6.85;;;;;;;23.95;51.29;99036.16;5032576;28;20033;-62
2022/07/12 07:33:23;;;;;;;8.43;6.45;;;;;;;23.87;51.67;99031.88;5030484;28;20049;-62
2022/07/12 07:35:50;;;;;;;10.25;6.80;;;;;;;23.78;52.04;99028.59;5031878;28;20041;-61
2022/07/12 07:38:17;;;;;;;8.73;7.03;;;;;;;23.91;51.91;99027.59;5031212;28;20029;-62
2022/07/12 07:40:43;;;;;;;13.68;7.30;;;;;;;24.25;51.23;99027.16;5032220;28;20118;-61
2022/07/12 07:43:08;;;;;;;9.38;6.65;;;;;;;25.37;48.74;99010.91;5031770;28;20053;-62
2022/07/12 07:45:34;;;;;;;15.98;6.35;;;;;;;26.26;46.04;99015.38;5031595;28;20037;-61
2022/07/12 07:47:59;;;;;;;10.38;5.65;;;;;;;26.97;44.33;99056.09;5030464;28;20045;-63
2022/07/12 07:50:26;;;;;;;12.57;5.75;;;;;;;28.43;41.21;99034.00;5031305;28;20106;-62
2022/07/12 07:52:51;;;;;;;8.15;5.68;;;;;;;30.89;35.96;99026.19;5029246;28;20029;-64
2022/07/12 07:55:17;;;;;;;12.43;5.93;;;;;;;31.48;35.10;99026.63;5030963;28;20044;-65
2022/07/12 07:57:43;;;;;;;11.00;5.45;;;;;;;33.10;32.08;99023.59;5032480;28;20381;-61
2022/07/12 08:00:10;;;;;;;8.50;4.93;;;;;;;36.24;27.10;99012.22;5031565;28;20462;-62
2022/07/12 08:02:36;;;;;;;7.55;4.82;;;;;;;36.92;25.98;99026.16;5031016;28;20036;-61
2022/07/12 08:05:02;;;;;;;11.50;4.75;;;;;;;35.88;27.32;99009.09;5029268;28;20026;-61
2022/07/12 08:07:28;;;;;;;4.90;4.40;;;;;;;35.49;27.46;99018.84;5031576;28;20032;-61
2022/07/12 08:09:53;;;;;;;7.30;4.47;;;;;;;34.76;28.14;99039.69;5030151;28;20033;-61
2022/07/12 08:12:19;;;;;;;6.82;4.40;;;;;;;33.18;30.29;99020.16;5030707;28;20069;-64
2022/07/12 08:14:44;;;;;;;6.00;4.07;;;;;;;31.85;32.65;99056.91;5030122;28;20100;-63
2022/07/12 08:17:10;;;;;;;7.07;3.78;;;;;;;30.70;34.79;99067.38;5031307;28;20109;-63
2022/07/12 08:19:35;;;;;;;8.75;3.95;;;;;;;29.72;36.46;99059.66;5030964;28;20030;-63
2022/07/12 08:22:01;;;;;;;8.30;4.07;;;;;;;28.94;37.81;99028.09;5030857;28;20104;-62
2022/07/12 08:24:27;;;;;;;4.88;3.78;;;;;;;28.38;39.92;99065.03;5030204;28;20080;-63
2022/07/12 08:26:52;;;;;;;4.78;3.90;;;;;;;27.91;40.68;99050.78;5030974;28;20111;-61
2022/07/12 08:29:18;;;;;;;6.93;4.38;;;;;;;27.79;40.83;99066.59;5026745;28;20148;-63
2022/07/12 08:31:43;;;;;;;9.55;4.10;;;;;;;27.57;41.17;99041.84;5011230;28;20041;-63
2022/07/12 08:34:09;;;;;;;8.25;4.10;;;;;;;27.77;40.61;99071.53;5010957;28;20070;-62
2022/07/12 08:36:34;;;;;;;7.05;4.00;;;;;;;27.85;40.73;99071.06;5014734;28;20509;-61
2022/07/12 08:39:00;;;;;;;6.45;4.32;;;;;;;28.08;40.70;99077.38;5029522;28;20108;-62
2022/07/12 08:41:25;;;;;;;7.60;4.28;;;;;;;28.32;40.11;99063.34;5030691;28;20079;-65
2022/07/12 08:43:51;;;;;;;5.88;4.25;;;;;;;28.49;39.58;99057.72;5045899;28;20037;-64
2022/07/12 08:46:17;;;;;;;5.18;4.30;;;;;;;28.70;39.13;99075.25;5030478;28;20116;-63
2022/07/12 08:48:43;;;;;;;5.05;4.22;;;;;;;28.75;38.89;99082.72;5031070;28;20108;-66
2022/07/12 08:51:09;;;;;;;7.78;4.13;;;;;;;28.90;38.38;99080.13;5029748;28;20033;-65
2022/07/12 08:53:35;;;;;;;5.22;4.07;;;;;;;29.02;38.12;99099.22;5029411;28;20029;-63
2022/07/12 08:56:02;;;;;;;6.32;4.00;;;;;;;29.06;37.43;99094.03;5029676;28;20039;-62
2022/07/12 08:58:28;;;;;;;5.13;4.03;;;;;;;29.11;37.43;99120.75;5030979;28;20025;-61
2022/07/12 09:00:54;;;;;;;6.00;4.28;;;;;;;29.11;37.26;99076.66;5029400;28;20091;-61
2022/07/12 09:03:20;;;;;;;5.72;4.00;;;;;;;29.26;37.03;99095.22;5030717;28;20435;-63
2022/07/12 09:05:53;;;;;;;5.35;4.00;;;;;;;29.19;37.18;99118.34;5030331;28;20108;-61
2022/07/12 09:08:32;;;;;;;8.60;4.22;;;;;;;29.21;37.27;99094.09;5030612;28;20037;-62
2022/07/12 09:11:04;;;;;;;7.47;3.80;;;;;;;29.31;36.91;99125.63;5013574;28;20029;-63
2022/07/12 09:13:50;;;;;;;7.03;3.78;;;;;;;29.52;36.23;99093.50;5030083;28;20044;-62
2022/07/12 09:16:20;;;;;;;6.95;4.18;;;;;;;29.39;35.66;99124.25;5029700;28;20115;-64
2022/07/12 09:18:47;;;;;;;5.70;3.53;;;;;;;29.01;36.16;99089.28;5029551;28;20025;-61
2022/07/12 09:21:29;;;;;;;5.53;3.85;;;;;;;28.79;36.76;99098.50;5033008;28;20029;-62
2022/07/12 09:23:59;;;;;;;4.78;4.28;;;;;;;28.44;36.42;99097.03;5033524;28;20053;-62
2022/07/12 09:26:32;;;;;;;6.47;4.18;;;;;;;28.06;37.02;99102.38;5034021;28;20059;-64
2022/07/12 09:29:09;;;;;;;5.22;3.97;;;;;;;27.87;37.80;99121.13;5014728;28;20037;-62
2022/07/12 09:37:19;;;;;;;6.22;4.50;;;;;;;28.63;36.09;99102.16;5034179;28;20087;-62
2022/07/12 09:39:45;;;;;;;5.97;3.95;;;;;;;28.77;35.77;99117.19;5033083;28;20029;-63
2022/07/12 09:42:12;;;;;;;8.30;4.00;;;;;;;28.79;35.61;99131.53;5032701;28;20033;-63
2022/07/12 09:44:41;;;;;;;4.90;4.03;;;;;;;28.68;35.68;99090.38;5048240;28;20025;-62
2022/07/12 09:47:14;;;;;;;4.32;3.92;;;;;;;28.72;36.09;99105.28;5015760;28;20478;-61
2022/07/12 09:49:41;;;;;;;4.40;4.00;;;;;;;28.71;36.58;99112.72;5033768;28;20442;-62
2022/07/12 09:52:11;;;;;;;8.57;4.28;;;;;;;28.74;36.18;99125.13;5033234;28;20040;-65
2022/07/12 09:54:40;;;;;;;5.95;4.13;;;;;;;28.51;36.63;99130.72;5014135;28;20061;-64
2022/07/12 09:57:33;;;;;;;5.65;3.92;;;;;;;28.40;36.81;99123.41;5033867;28;20037;-61
2022/07/12 10:00:00;;;;;;;4.75;4.22;;;;;;;28.27;36.71;99118.34;5030059;28;20048;-61
2022/07/12 10:02:27;;;;;;;6.45;3.83;;;;;;;28.12;37.34;99110.72;5033014;28;20083;-60
2022/07/12 10:04:53;;;;;;;6.85;4.47;;;;;;;27.79;37.78;99080.34;5033285;28;20126;-64
2022/07/12 10:07:19;;;;;;;4.82;4.18;;;;;;;27.63;38.32;99088.38;5033639;28;20040;-59
2022/07/12 10:09:52;;;;;;;6.10;3.88;;;;;;;27.79;38.95;99110.59;5032340;28;20029;-60
2022/07/12 10:12:20;;;;;;;6.68;4.18;;;;;;;28.05;38.65;99121.91;5033071;28;20030;-60
2022/07/12 10:14:48;;;;;;;4.70;3.90;;;;;;;28.18;38.07;99095.94;5033497;28;20029;-59
2022/07/12 10:17:22;;;;;;;8.80;4.07;;;;;;;28.63;37.39;99115.94;5033191;28;20100;-61
2022/07/12 10:19:47;;;;;;;6.13;4.18;;;;;;;28.74;36.24;99117.69;5015736;28;20025;-59
2022/07/12 10:22:22;;;;;;;5.65;4.20;;;;;;;28.90;36.34;99139.88;5033209;28;20030;-61
2022/07/12 10:24:52;;;;;;;8.13;4.20;;;;;;;28.92;35.67;99152.31;5032694;28;20037;-61
2022/07/12 10:27:18;;;;;;;4.50;4.05;;;;;;;28.79;36.19;99134.31;5033370;28;20466;-61
2022/07/12 10:29:45;;;;;;;9.30;3.85;;;;;;;28.70;36.30;99132.25;5032928;28;20033;-59
2022/07/12 10:32:34;;;;;;;7.03;3.53;;;;;;;29.01;35.53;99147.16;5032111;28;20072;-61
2022/07/12 10:35:02;;;;;;;7.03;3.10;;;;;;;29.00;34.63;99130.88;5026370;28;20132;-57
2022/07/12 10:37:30;;;;;;;4.07;2.80;;;;;;;29.16;33.99;99140.94;5032873;28;20383;-60
2022/07/12 10:40:19;;;;;;;6.88;2.97;;;;;;;29.56;33.38;99137.94;5031904;28;20484;-60
2022/07/12 10:43:13;;;;;;;7.93;2.15;;;;;;;29.84;32.25;99164.28;5033113;28;20030;-59
2022/07/12 10:45:43;;;;;;;2.10;1.52;;;;;;;29.77;30.95;99174.72;5032932;28;20057;-56
2022/07/12 10:48:15;;;;;;;4.05;1.30;;;;;;;29.63;30.91;99161.41;5030420;28;20033;-61
2022/07/12 10:50:48;;;;;;;2.88;1.60;;;;;;;29.43;30.96;99164.03;5024951;28;20033;-60
2022/07/12 10:53:20;;;;;;;2.08;1.42;;;;;;;29.07;30.72;99203.97;5032079;28;20060;-61
2022/07/12 10:56:04;;;;;;;3.05;0.80;;;;;;;28.77;30.23;99171.41;5031827;28;20033;-61
2022/07/12 10:58:50;;;;;;;0.95;0.70;;;;;;;28.44;30.43;99206.34;5012784;28;20087;-61
2022/07/12 11:01:25;;;;;;;3.13;0.90;;;;;;;28.12;30.92;99185.81;5010792;28;20447;-59
2022/07/12 11:03:57;;;;;;;0.70;0.70;;;;;;;27.74;31.04;99169.09;5020046;28;20394;-62
2022/07/12 11:06:24;;;;;;;2.45;0.82;;;;;;;27.62;31.47;99195.91;5032162;28;20061;-62
2022/07/12 11:09:01;;;;;;;1.20;0.80;;;;;;;27.54;31.06;99177.91;5029364;28;20051;-62
2022/07/12 11:11:43;;;;;;;3.00;1.30;;;;;;;27.49;31.51;99186.03;5033742;28;20029;-62
2022/07/12 11:14:09;;;;;;;2.38;0.90;;;;;;;27.14;31.99;99123.94;5031032;28;20079;-63
2022/07/12 11:16:43;;;;;;;3.33;1.10;;;;;;;27.48;32.59;99162.38;5019937;28;20021;-62
2022/07/12 11:19:09;;;;;;;3.92;1.08;;;;;;;27.33;32.57;99160.22;5031460;28;20453;-61
2022/07/12 11:21:35;;;;;;;1.48;1.13;;;;;;;27.42;32.15;99183.47;5028566;28;20034;-63
2022/07/12 11:24:01;;;;;;;3.67;1.20;;;;;;;27.37;32.93;99186.97;5043760;28;20083;-62
2022/07/12 11:26:27;;;;;;;2.17;0.90;;;;;;;27.30;32.68;99185.47;5031940;28;20029;-61
2022/07/12 11:28:57;;;;;;;3.03;1.20;;;;;;;27.28;32.69;99190.38;5030451;28;20039;-59
2022/07/12 11:31:25;;;;;;;1.00;1.00;;;;;;;27.19;33.79;99181.72;5031761;28;20103;-61
2022/07/12 11:33:51;;;;;;;2.25;1.05;;;;;;;27.21;33.03;99174.03;5029871;28;20128;-60
2022/07/12 11:36:17;;;;;;;2.63;1.13;;;;;;;27.34;33.00;99192.13;5030361;28;20601;-62
2022/07/12 11:38:44;;;;;;;2.45;0.98;;;;;;;27.39;33.64;99196.88;5027991;28;20104;-61
2022/07/12 11:41:12;;;;;;;2.95;1.23;;;;;;;27.33;33.65;99196.78;5027699;28;20068;-60